Pagrindinis puslapis
METAR-TAF:

METAR-TAF

Oro uostai :

Reschen Pass, Italija

platuma: 46-50N, ilguma: 010-30E, Aukštis: 1800 m

Dabartinis oras

Ataskaita buvo paskelbta 1 valandą ir 8 minutes, ne 02:55 UTC
Vėjas 4 kt iš Šiaurės
Temperatūra -2°C
Drėgmė 93%
Slėgis 1020 hPa
Matomumas: 6000 m
sniegas

METAR: LIVE 180255Z 01004KT 6000 -SN NSC M02/M03 Q1020 RMK OVC OVC060 VIS MIN 6000

Laikas: 05:03 (04:03 UTC)


TAF: trūkstamas

Orai ataskaitas ir orų prognozės (METAR, TAF).

turimą stotys yra geltonos ir raudonos taškus žemėlapyje.

Perkelti pele per norėdami pamatyti stoties vardą.

Tada spustelėkite, norėdami matyti oro stebėjimo ir prognozės.

Norėdami pakeisti žemėlapį: spustelėkite ant žalios mygtukų su juodo kryžiaus žemyn,; žalią mygtuką su brūkšneliu, jei norite nutolinti; arba žalių rodyklių gretimoms žemėlapius.


METAR-TAF: